Terminal Aerodrome Forecast
Issued by NWS

Home | Current Version | Previous Version | Text Only | Print | Product List | Glossary On
Versions: 1 2 3 4 5 6 7 8 9 10 11 12 13 14 15 16 17 18
022
FTUS43 KGRB 261125
TAFATW
TAF
KATW 261125Z 2612/2712 28005KT P6SM SCT250
     FM261700 27005KT P6SM SCT050
     FM270200 VRB03KT P6SM BKN120
     FM270900 12003KT P6SM SHRA SCT035=

USA.gov is the U.S. government's official web portal to all federal, state and local government web resources and services.